createdAt,value
2022-12-26T00:04:50.930Z,11.71
2022-12-26T00:09:44.902Z,11.71
2022-12-26T00:14:46.283Z,11.65
2022-12-26T00:19:47.707Z,11.66
2022-12-26T00:24:49.051Z,11.71
2022-12-26T00:29:50.438Z,11.54
2022-12-26T00:34:51.759Z,11.78
2022-12-26T00:39:53.105Z,11.79
2022-12-26T00:44:54.493Z,11.79
2022-12-26T00:50:12.389Z,11.81
2022-12-26T00:55:15.872Z,11.82
2022-12-26T01:00:17.324Z,11.80
2022-12-26T01:05:18.752Z,11.65
2022-12-26T01:10:20.168Z,11.73
2022-12-26T01:15:21.548Z,11.70
2022-12-26T01:20:23.051Z,11.72
2022-12-26T01:25:24.469Z,11.77
2022-12-26T01:30:25.755Z,11.77
2022-12-26T01:35:27.105Z,11.78
2022-12-26T01:40:28.418Z,11.83
2022-12-26T01:45:31.386Z,11.84
2022-12-26T01:50:44.900Z,11.88
2022-12-26T01:55:51.904Z,11.84
2022-12-26T02:00:54.463Z,11.75
2022-12-26T02:05:58.918Z,11.77
2022-12-26T02:11:07.853Z,11.84
2022-12-26T02:16:13.446Z,11.86
2022-12-26T02:21:41.365Z,11.84
2022-12-26T02:27:04.549Z,11.82
2022-12-26T02:32:19.779Z,11.87
2022-12-26T02:37:40.001Z,11.87
2022-12-26T02:42:47.368Z,11.88
2022-12-26T02:48:10.048Z,11.86
2022-12-26T02:53:49.481Z,11.87
2022-12-26T02:59:54.207Z,11.83
2022-12-26T03:05:07.631Z,11.82
2022-12-26T03:10:38.704Z,11.83
2022-12-26T03:16:11.826Z,11.74
2022-12-26T03:21:16.570Z,11.84
2022-12-26T03:26:40.203Z,11.96
2022-12-26T03:31:41.567Z,11.95
2022-12-26T03:37:00.969Z,12.00
2022-12-26T03:42:31.781Z,11.94
2022-12-26T03:48:03.835Z,12.00
2022-12-26T03:53:36.374Z,11.95
2022-12-26T03:59:05.242Z,11.97
2022-12-26T04:04:29.590Z,11.96
2022-12-26T04:10:03.610Z,11.98
2022-12-26T04:15:43.414Z,11.90
2022-12-26T04:21:06.657Z,11.97
2022-12-26T04:26:33.529Z,11.88
2022-12-26T04:32:06.709Z,11.79
2022-12-26T04:37:36.583Z,11.76
2022-12-26T04:43:00.150Z,11.78
2022-12-26T04:48:20.529Z,11.84
2022-12-26T04:53:22.035Z,11.80
2022-12-26T04:58:24.309Z,11.80
2022-12-26T05:03:44.410Z,11.78
2022-12-26T05:09:05.911Z,11.83
2022-12-26T05:14:07.297Z,11.80
2022-12-26T05:19:36.861Z,11.82
2022-12-26T05:24:59.340Z,11.79
2022-12-26T05:30:01.212Z,11.80
2022-12-26T05:35:02.567Z,11.84
2022-12-26T05:40:04.352Z,11.90
2022-12-26T05:45:06.371Z,11.91
2022-12-26T05:50:08.362Z,12.00
2022-12-26T05:55:09.922Z,11.81
2022-12-26T06:00:11.912Z,12.06
2022-12-26T06:05:13.364Z,12.11
2022-12-26T06:10:14.777Z,12.14
2022-12-26T06:15:16.285Z,12.17
2022-12-26T06:20:17.599Z,12.20
2022-12-26T06:25:18.875Z,12.12
2022-12-26T06:30:20.247Z,12.23
2022-12-26T06:35:22.447Z,12.16
2022-12-26T06:40:23.750Z,12.21
2022-12-26T06:45:25.090Z,12.13
2022-12-26T06:50:27.034Z,12.25
2022-12-26T06:55:28.488Z,12.25
2022-12-26T07:00:30.335Z,12.22
2022-12-26T07:05:31.783Z,12.20
2022-12-26T07:10:37.051Z,12.11
2022-12-26T07:15:38.352Z,12.15
2022-12-26T07:20:39.734Z,12.21
2022-12-26T07:25:41.059Z,12.22
2022-12-26T07:30:50.018Z,12.20
2022-12-26T07:35:51.341Z,12.25
2022-12-26T07:40:56.206Z,12.18
2022-12-26T07:45:57.758Z,12.14
2022-12-26T07:51:01.989Z,12.08
2022-12-26T07:56:03.975Z,11.87
2022-12-26T08:01:06.880Z,11.75
2022-12-26T08:06:11.836Z,11.63
2022-12-26T08:11:20.196Z,11.64
2022-12-26T08:16:21.603Z,11.71
2022-12-26T08:21:23.137Z,11.59
2022-12-26T08:26:24.573Z,11.55
2022-12-26T08:36:32.293Z,11.57
2022-12-26T08:41:33.680Z,11.60
2022-12-26T08:46:36.900Z,11.65
2022-12-26T08:51:39.518Z,11.62
2022-12-26T08:56:41.302Z,11.61
2022-12-26T09:01:42.817Z,11.60
2022-12-26T09:06:44.223Z,11.53
2022-12-26T09:11:45.603Z,11.47
2022-12-26T09:16:51.089Z,11.53
2022-12-26T09:22:12.680Z,11.43
2022-12-26T09:27:14.071Z,11.49
2022-12-26T09:32:15.447Z,11.44
2022-12-26T09:37:16.859Z,11.45
2022-12-26T09:42:43.328Z,11.48
2022-12-26T09:48:06.600Z,11.47
2022-12-26T09:53:18.517Z,11.49
2022-12-26T09:58:48.824Z,11.55
2022-12-26T10:03:59.032Z,11.53
2022-12-26T10:09:25.469Z,11.63
2022-12-26T10:15:04.384Z,11.60
2022-12-26T10:20:25.655Z,11.55
2022-12-26T10:25:37.674Z,11.59
2022-12-26T10:30:42.504Z,11.62
2022-12-26T10:35:45.770Z,11.55
2022-12-26T10:40:50.385Z,11.59
2022-12-26T10:45:57.831Z,11.58
2022-12-26T10:50:59.381Z,11.41
2022-12-26T10:56:01.793Z,11.53
2022-12-26T11:01:28.274Z,11.60
2022-12-26T11:06:38.096Z,11.54
2022-12-26T11:11:48.419Z,11.69
2022-12-26T11:16:50.223Z,11.84
2022-12-26T11:21:51.602Z,11.89
2022-12-26T11:27:13.050Z,11.87
2022-12-26T11:32:20.188Z,11.88
2022-12-26T11:37:28.548Z,11.83
2022-12-26T11:42:30.169Z,11.83
2022-12-26T11:47:31.751Z,11.91
2022-12-26T11:52:48.119Z,11.92
2022-12-26T11:58:10.461Z,11.94
2022-12-26T12:03:31.126Z,11.95
2022-12-26T12:08:38.455Z,12.03
2022-12-26T12:13:52.978Z,11.82
2022-12-26T12:19:38.835Z,12.12
2022-12-26T12:25:16.291Z,12.09
2022-12-26T12:30:24.446Z,11.99
2022-12-26T12:35:42.126Z,11.95
2022-12-26T12:41:06.389Z,11.93
2022-12-26T12:46:27.991Z,11.92
2022-12-26T12:52:00.151Z,11.90
2022-12-26T12:57:04.577Z,11.95
2022-12-26T13:02:38.341Z,11.95
2022-12-26T13:07:47.227Z,11.87
2022-12-26T13:12:51.389Z,11.83
2022-12-26T13:18:14.337Z,11.95
2022-12-26T13:23:52.291Z,11.95
2022-12-26T13:29:02.477Z,11.99
2022-12-26T13:34:07.545Z,12.13
2022-12-26T13:39:11.925Z,12.19
2022-12-26T13:44:19.846Z,12.11
2022-12-26T13:49:40.615Z,12.07
2022-12-26T13:54:48.838Z,12.06
2022-12-26T14:00:01.301Z,12.05
2022-12-26T14:05:18.856Z,11.98
2022-12-26T14:10:40.315Z,11.97
2022-12-26T14:15:56.386Z,11.44
2022-12-26T14:21:20.494Z,10.98
2022-12-26T14:26:42.318Z,10.64
2022-12-26T14:31:56.601Z,10.47
2022-12-26T14:37:12.858Z,10.59
2022-12-26T14:42:42.225Z,10.58
2022-12-26T14:47:46.580Z,10.58
2022-12-26T14:52:49.000Z,10.75
2022-12-26T14:57:50.686Z,10.95
2022-12-26T15:02:58.299Z,10.88
2022-12-26T15:08:17.027Z,10.89
2022-12-26T15:13:36.267Z,10.92
2022-12-26T15:19:06.667Z,10.95
2022-12-26T15:24:13.790Z,10.91
2022-12-26T15:29:41.373Z,10.88
2022-12-26T15:35:04.417Z,10.64
2022-12-26T15:40:14.970Z,10.51
2022-12-26T15:45:35.899Z,10.44
2022-12-26T15:50:48.265Z,10.43
2022-12-26T15:56:07.664Z,10.49
2022-12-26T16:01:10.894Z,10.47
2022-12-26T16:06:44.694Z,10.36
2022-12-26T16:11:57.141Z,10.46
2022-12-26T16:17:13.545Z,10.42
2022-12-26T16:22:46.318Z,10.43
2022-12-26T16:27:51.336Z,10.34
2022-12-26T16:32:53.729Z,10.37
2022-12-26T16:37:58.059Z,10.46
2022-12-26T16:43:24.055Z,10.51
2022-12-26T16:48:28.023Z,10.36
2022-12-26T16:53:35.493Z,10.17
2022-12-26T16:58:37.950Z,9.95
2022-12-26T17:03:39.358Z,9.90
2022-12-26T17:08:47.359Z,9.93
2022-12-26T17:13:52.760Z,9.91
2022-12-26T17:18:56.733Z,9.81
2022-12-26T17:24:07.424Z,9.79
2022-12-26T17:29:48.086Z,9.77
2022-12-26T17:34:49.719Z,9.70
2022-12-26T17:39:59.011Z,9.70
2022-12-26T17:45:04.187Z,9.72
2022-12-26T17:50:05.780Z,9.75
2022-12-26T17:55:16.203Z,9.72
2022-12-26T18:00:20.632Z,9.69
2022-12-26T18:05:22.433Z,9.65
2022-12-26T18:10:29.021Z,9.72
2022-12-26T18:15:31.158Z,9.70
2022-12-26T18:20:32.757Z,9.51
2022-12-26T18:25:34.188Z,9.47
2022-12-26T18:30:35.617Z,9.52
2022-12-26T18:35:42.219Z,9.63
2022-12-26T18:40:47.073Z,9.64
2022-12-26T18:45:48.736Z,9.72
2022-12-26T18:50:50.352Z,9.68
2022-12-26T18:55:51.735Z,9.75
2022-12-26T19:00:53.233Z,9.88
2022-12-26T19:05:54.575Z,9.62
2022-12-26T19:10:56.110Z,9.72
2022-12-26T19:15:59.962Z,9.74
2022-12-26T19:21:01.713Z,9.45
2022-12-26T19:26:09.314Z,9.24
2022-12-26T19:31:15.163Z,9.38
2022-12-26T19:36:17.196Z,9.44
2022-12-26T19:41:18.666Z,9.38
2022-12-26T19:46:20.112Z,9.05
2022-12-26T19:51:22.424Z,9.09
2022-12-26T19:56:26.147Z,9.16
2022-12-26T20:01:30.696Z,9.27
2022-12-26T20:06:35.000Z,9.08
2022-12-26T20:11:39.907Z,9.06
2022-12-26T20:22:03.108Z,9.08
2022-12-26T20:27:04.612Z,8.79
2022-12-26T20:32:06.095Z,8.89
2022-12-26T20:37:07.460Z,8.85
2022-12-26T20:42:08.868Z,8.77
2022-12-26T20:47:10.273Z,8.77
2022-12-26T20:52:11.752Z,8.68
2022-12-26T20:57:13.136Z,8.71
2022-12-26T21:02:14.665Z,8.41
2022-12-26T21:07:16.291Z,8.17
2022-12-26T21:12:17.884Z,8.00
2022-12-26T21:17:19.692Z,8.01
2022-12-26T21:22:21.227Z,7.77
2022-12-26T21:27:22.721Z,7.84
2022-12-26T21:32:24.098Z,7.60
2022-12-26T21:37:44.251Z,7.63
2022-12-26T21:42:46.194Z,7.30
2022-12-26T21:47:47.539Z,7.39
2022-12-26T21:52:48.820Z,7.25
2022-12-26T21:57:50.159Z,7.13
2022-12-26T22:03:10.343Z,7.00
2022-12-26T22:08:11.830Z,7.00
2022-12-26T22:13:13.296Z,7.05
2022-12-26T22:18:14.693Z,7.07
2022-12-26T22:23:16.096Z,6.93
2022-12-26T22:28:23.023Z,6.95
2022-12-26T22:33:25.106Z,7.07
2022-12-26T22:38:27.885Z,7.15
2022-12-26T22:43:29.654Z,6.94
2022-12-26T22:48:31.140Z,6.91
2022-12-26T22:53:32.563Z,6.94
2022-12-26T22:58:34.288Z,6.78
2022-12-26T23:03:35.767Z,6.73
2022-12-26T23:08:37.336Z,6.76
2022-12-26T23:13:39.059Z,6.64
2022-12-26T23:19:04.267Z,6.67
2022-12-26T23:24:06.335Z,6.71
2022-12-26T23:29:29.133Z,6.55
2022-12-26T23:34:31.282Z,6.48
2022-12-26T23:39:32.590Z,6.52
2022-12-26T23:44:34.055Z,6.40
2022-12-26T23:49:35.467Z,6.41
2022-12-26T23:54:36.986Z,6.30
2022-12-26T23:59:38.355Z,6.17
